Terminal Aerodrome Forecast
Issued by NWS

Home | Current Version | Previous Version | Graphics & Text | Print | Product List | Glossary On
Versions: 1 2 3 4 5 6 7 8 9 10 11 12 13 14 15 16 17 18 19
000
FTUS43 KBIS 231600 AAA
TAFJMS
TAF AMD
KJMS 231600Z 2316/2412 36017KT 6SM -SN BR OVC025
      TEMPO 2316/2317 3SM -SN BR OVC008
     FM231700 36018G24KT 5SM -SN OVC008
     FM232100 33018KT 5SM BR OVC012
     FM240300 32008KT P6SM OVC015=

USA.gov is the U.S. government's official web portal to all federal, state and local government web resources and services.